Time;durP1;ratioP1;P1;durP2;ratioP2;P2;SDS_P1;SDS_P2;PMS_P1;PMS_P2;Temp;Humidity;BMP_temperature;BMP_pressure;BME280_temperature;BME280_humidity;BME280_pressure;Samples;Min_cycle;Max_cycle;Signal;HPM_P1;HPM_P2
2023/06/10 00:02:07;;;;;;;3.00;2.70;;;;;;;24.12;44.87;100559.56;4485384;28;20049;-60
2023/06/10 00:04:18;;;;;;;3.10;2.80;;;;;;;24.10;45.50;100562.81;4484630;28;20034;-60
2023/06/10 00:06:35;;;;;;;3.25;2.95;;;;;;;24.09;45.15;100555.41;4482567;28;20497;-60
2023/06/10 00:08:47;;;;;;;3.28;2.97;;;;;;;24.09;45.11;100561.16;4484149;28;20034;-59
2023/06/10 00:10:57;;;;;;;3.00;2.80;;;;;;;24.10;45.30;100565.69;4483147;28;20124;-59
2023/06/10 00:13:08;;;;;;;3.15;2.95;;;;;;;24.05;45.25;100545.88;4485349;28;20438;-59
2023/06/10 00:15:19;;;;;;;3.35;3.05;;;;;;;24.12;45.27;100557.50;4485957;28;20205;-58
2023/06/10 00:17:30;;;;;;;3.30;3.00;;;;;;;24.08;45.30;100550.03;4471733;28;20061;-59
2023/06/10 00:19:40;;;;;;;3.13;2.83;;;;;;;24.11;45.41;100557.91;4475142;28;20177;-59
2023/06/10 00:21:52;;;;;;;3.20;2.90;;;;;;;24.10;45.27;100557.06;4486281;28;20169;-59
2023/06/10 00:24:11;;;;;;;2.72;2.53;;;;;;;24.10;45.44;100551.28;4486325;28;20027;-58
2023/06/10 00:26:23;;;;;;;3.05;2.85;;;;;;;24.10;45.16;100551.28;4486801;28;20037;-59
2023/06/10 00:28:34;;;;;;;3.00;2.70;;;;;;;24.10;45.11;100554.16;4486314;28;20042;-59
2023/06/10 00:30:44;;;;;;;3.85;2.80;;;;;;;24.10;45.34;100548.41;4477201;28;20030;-59
2023/06/10 00:32:55;;;;;;;3.50;3.20;;;;;;;24.10;45.10;100545.50;4471556;28;20478;-59
2023/06/10 00:35:06;;;;;;;3.17;2.85;;;;;;;24.10;44.94;100551.28;4477973;28;20146;-58
2023/06/10 00:37:16;;;;;;;3.08;2.80;;;;;;;24.09;44.78;100546.75;4485242;28;20039;-59
2023/06/10 00:39:27;;;;;;;2.90;2.70;;;;;;;24.09;44.88;100548.78;4486293;28;20089;-59
2023/06/10 00:41:37;;;;;;;3.00;2.80;;;;;;;24.09;44.74;100548.78;4485644;28;20525;-59
2023/06/10 00:43:48;;;;;;;3.00;2.80;;;;;;;24.08;44.52;100553.75;4478101;28;20475;-59
2023/06/10 00:45:59;;;;;;;3.38;3.10;;;;;;;24.10;44.34;100554.16;4471192;28;20134;-59
2023/06/10 00:48:09;;;;;;;3.38;3.08;;;;;;;24.08;44.80;100553.75;4486488;28;20038;-59
2023/06/10 00:50:20;;;;;;;3.47;3.17;;;;;;;24.07;44.63;100549.19;4472160;28;20042;-59
2023/06/10 00:52:30;;;;;;;3.53;3.22;;;;;;;24.09;44.60;100555.41;4468965;28;20031;-59
2023/06/10 00:54:41;;;;;;;3.60;3.30;;;;;;;24.07;44.69;100548.38;4471845;28;20029;-60
2023/06/10 00:56:53;;;;;;;3.50;3.20;;;;;;;24.06;44.60;100553.31;4485848;28;20034;-59
2023/06/10 00:59:03;;;;;;;3.40;3.10;;;;;;;24.05;44.61;100554.53;4485323;28;20065;-58
2023/06/10 01:01:14;;;;;;;3.47;3.17;;;;;;;24.09;44.67;100560.34;4486179;28;20030;-59
2023/06/10 01:03:25;;;;;;;3.40;3.10;;;;;;;24.05;44.55;100560.31;4486595;28;20761;-59
2023/06/10 01:05:36;;;;;;;3.20;2.90;;;;;;;24.09;44.44;100560.34;4486258;28;20955;-59
2023/06/10 01:08:13;;;;;;;3.20;3.00;;;;;;;24.07;44.37;100549.19;4478247;28;20018;-58
2023/06/10 01:10:52;;;;;;;3.80;3.50;;;;;;;24.08;44.22;100559.53;4467764;28;20058;-59
2023/06/10 01:13:11;;;;;;;3.97;3.67;;;;;;;24.08;44.09;100558.69;4477952;28;20526;-59
2023/06/10 01:15:22;;;;;;;3.30;3.00;;;;;;;24.08;44.31;100562.41;4486540;28;20038;-59
2023/06/10 01:17:33;;;;;;;3.45;3.15;;;;;;;24.08;44.35;100559.53;4476651;28;20501;-59
2023/06/10 01:19:44;;;;;;;3.55;3.25;;;;;;;24.07;44.37;100560.72;4477831;28;20042;-59
2023/06/10 01:21:55;;;;;;;3.70;3.40;;;;;;;24.06;44.04;100561.97;4485874;28;20034;-58
2023/06/10 01:24:08;;;;;;;3.60;3.30;;;;;;;24.07;44.09;100562.81;4470213;28;20026;-59
2023/06/10 01:26:23;;;;;;;3.50;3.20;;;;;;;24.07;43.58;100569.38;4486069;28;20727;-59
2023/06/10 01:28:53;;;;;;;3.95;3.55;;;;;;;24.06;43.97;100569.78;4485138;28;20045;-59
2023/06/10 01:31:21;;;;;;;4.20;3.80;;;;;;;24.06;44.20;100561.13;4486394;28;20042;-59
2023/06/10 01:33:36;;;;;;;3.70;3.40;;;;;;;24.02;44.10;100561.09;4476689;28;20058;-59
2023/06/10 01:35:47;;;;;;;3.72;3.42;;;;;;;24.04;43.57;100557.81;4472353;28;20050;-59
2023/06/10 01:37:59;;;;;;;3.40;3.10;;;;;;;24.03;43.87;100561.91;4486664;28;20100;-59
2023/06/10 01:40:11;;;;;;;3.70;3.40;;;;;;;24.02;44.00;100566.03;4469068;28;20038;-58
2023/06/10 01:42:22;;;;;;;3.58;3.28;;;;;;;24.04;43.95;100564.41;4486251;28;20100;-59
2023/06/10 01:44:32;;;;;;;3.50;3.20;;;;;;;24.03;44.15;100562.75;4457809;28;20078;-59
2023/06/10 01:46:43;;;;;;;3.60;3.30;;;;;;;24.04;44.08;100555.75;4485542;28;20478;-59
2023/06/10 01:48:56;;;;;;;3.80;3.50;;;;;;;24.05;44.00;100559.47;4485174;28;20066;-59
2023/06/10 01:51:06;;;;;;;3.17;2.95;;;;;;;24.05;43.95;100574.72;4470807;28;20031;-59
2023/06/10 01:53:17;;;;;;;3.65;3.35;;;;;;;24.03;43.94;100568.50;4485109;28;20490;-59
2023/06/10 01:55:27;;;;;;;3.70;3.40;;;;;;;24.05;44.09;100577.59;4469756;28;20023;-59
2023/06/10 01:57:37;;;;;;;3.38;3.08;;;;;;;24.04;43.95;100569.34;4473684;28;21118;-59
2023/06/10 01:59:48;;;;;;;3.63;3.33;;;;;;;24.01;43.79;100559.41;4471422;28;20049;-59
2023/06/10 02:01:59;;;;;;;4.13;3.42;;;;;;;24.02;43.84;100566.88;4485072;28;20936;-58
2023/06/10 02:04:09;;;;;;;3.50;3.20;;;;;;;24.04;43.56;100573.03;4485871;28;20041;-59
2023/06/10 02:06:20;;;;;;;3.67;3.38;;;;;;;24.02;43.19;100580.44;4467759;28;20593;-58
2023/06/10 02:08:30;;;;;;;3.90;3.60;;;;;;;24.05;43.44;100573.88;4466260;28;20517;-59
2023/06/10 02:10:44;;;;;;;3.83;3.53;;;;;;;24.03;43.18;100577.16;4485319;28;20048;-58
2023/06/10 02:12:54;;;;;;;3.97;3.58;;;;;;;24.02;43.30;100572.63;4486461;28;20041;-59
2023/06/10 02:15:05;;;;;;;3.70;3.40;;;;;;;24.02;43.58;100581.28;4485373;28;20121;-58
2023/06/10 02:17:16;;;;;;;3.90;3.60;;;;;;;24.03;43.65;100574.28;4485251;28;20045;-59
2023/06/10 02:19:27;;;;;;;3.83;3.53;;;;;;;24.01;43.95;100576.72;4485162;28;20044;-59
2023/06/10 02:21:38;;;;;;;3.60;3.30;;;;;;;24.01;43.97;100576.72;4484325;28;20038;-59
2023/06/10 02:23:48;;;;;;;3.20;2.90;;;;;;;23.99;43.64;100576.25;4477392;28;20042;-58
2023/06/10 02:25:59;;;;;;;3.60;3.30;;;;;;;24.02;43.64;100583.31;4470591;28;20431;-59
2023/06/10 02:28:10;;;;;;;3.30;3.00;;;;;;;24.02;43.62;100583.31;4467102;28;20113;-59
2023/06/10 02:30:21;;;;;;;3.92;3.17;;;;;;;24.01;43.33;100576.72;4474074;28;20044;-59
2023/06/10 02:32:31;;;;;;;3.17;2.90;;;;;;;24.01;43.40;100579.59;4469097;28;20039;-58
2023/06/10 02:34:42;;;;;;;3.05;2.85;;;;;;;23.98;43.13;100577.50;4467586;28;20871;-59
2023/06/10 02:36:53;;;;;;;3.35;3.10;;;;;;;23.97;43.24;100575.84;4469595;28;20041;-59
2023/06/10 02:39:05;;;;;;;3.45;3.15;;;;;;;24.00;43.11;100589.47;4466608;28;20042;-60
2023/06/10 02:41:16;;;;;;;3.50;3.20;;;;;;;24.01;42.58;100585.38;4470831;28;20149;-59
2023/06/10 02:43:27;;;;;;;3.53;3.22;;;;;;;24.01;42.65;100588.25;4470626;28;20034;-59
2023/06/10 02:45:38;;;;;;;3.70;3.40;;;;;;;23.98;42.86;100586.16;4457575;28;20040;-59
2023/06/10 02:47:50;;;;;;;3.25;3.03;;;;;;;24.02;42.69;100589.09;4475305;28;20031;-59
2023/06/10 02:50:01;;;;;;;3.53;3.22;;;;;;;23.98;42.64;100594.78;4484112;28;20418;-59
2023/06/10 02:52:13;;;;;;;3.95;3.28;;;;;;;23.92;42.61;100581.91;4468808;28;20582;-59
2023/06/10 02:54:24;;;;;;;3.30;3.03;;;;;;;23.99;42.76;100595.63;4466228;28;20042;-59
2023/06/10 02:56:34;;;;;;;3.72;3.42;;;;;;;24.00;42.89;100608.81;4458899;28;20054;-59
2023/06/10 02:58:48;;;;;;;3.22;2.95;;;;;;;23.99;43.05;100596.44;4454130;28;20125;-59
2023/06/10 03:01:01;;;;;;;3.50;3.20;;;;;;;24.01;42.78;100598.94;4454461;28;20093;-59
2023/06/10 03:03:16;;;;;;;3.50;3.20;;;;;;;23.96;42.61;100591.44;4470240;28;20037;-59
2023/06/10 03:05:36;;;;;;;5.07;3.58;;;;;;;23.99;42.67;100601.41;4470117;28;20304;-59
2023/06/10 03:07:49;;;;;;;3.50;3.20;;;;;;;23.95;42.52;100588.94;4468924;28;20049;-59
2023/06/10 03:10:00;;;;;;;3.30;3.00;;;;;;;23.98;42.58;100593.97;4467499;28;21061;-59
2023/06/10 03:12:11;;;;;;;3.50;3.20;;;;;;;23.97;42.66;100598.91;4467908;28;20034;-59
2023/06/10 03:14:26;;;;;;;3.90;3.13;;;;;;;23.96;42.58;100596.38;4475568;28;20034;-58
2023/06/10 03:16:40;;;;;;;3.42;3.13;;;;;;;23.97;42.23;100598.06;4473359;28;20034;-59
2023/06/10 03:18:51;;;;;;;3.85;3.53;;;;;;;23.96;42.17;100602.97;4475994;28;20046;-58
2023/06/10 03:21:03;;;;;;;3.40;3.10;;;;;;;23.98;42.11;100603.44;4474381;28;20822;-58
2023/06/10 03:23:13;;;;;;;3.50;3.20;;;;;;;23.97;42.20;100600.97;4469464;28;20102;-58
2023/06/10 03:25:26;;;;;;;3.65;3.35;;;;;;;23.94;42.31;100605.44;4469007;28;20050;-58
2023/06/10 03:27:38;;;;;;;3.42;3.13;;;;;;;23.94;42.20;100599.66;4466235;28;20030;-58
2023/06/10 03:29:51;;;;;;;3.47;3.17;;;;;;;23.92;42.71;100601.25;4468647;28;20079;-58
2023/06/10 03:32:02;;;;;;;3.70;3.40;;;;;;;23.92;42.54;100599.22;4464947;28;20605;-58
2023/06/10 03:34:14;;;;;;;3.70;3.40;;;;;;;23.91;42.74;100600.44;4476188;28;20038;-58
2023/06/10 03:36:25;;;;;;;3.92;3.63;;;;;;;23.92;43.11;100596.34;4474061;28;20038;-58
2023/06/10 03:38:36;;;;;;;3.90;3.60;;;;;;;23.95;43.19;100612.00;4484094;28;20049;-58
2023/06/10 03:40:47;;;;;;;3.70;3.40;;;;;;;23.90;43.23;100604.53;4475561;28;20169;-58
2023/06/10 03:42:58;;;;;;;3.83;3.53;;;;;;;23.93;43.09;100612.41;4465999;28;20304;-58
2023/06/10 03:45:09;;;;;;;3.50;3.20;;;;;;;23.87;42.95;100608.19;4466077;28;20053;-58
2023/06/10 03:47:21;;;;;;;3.90;3.60;;;;;;;23.93;42.98;100614.47;4483676;28;20045;-58
2023/06/10 03:49:33;;;;;;;3.80;3.50;;;;;;;23.89;43.36;100608.66;4479704;28;20029;-58
2023/06/10 03:51:45;;;;;;;4.00;3.70;;;;;;;23.91;43.15;100609.09;4485690;28;20038;-58
2023/06/10 03:53:56;;;;;;;3.55;3.25;;;;;;;23.93;42.86;100621.03;4473061;28;20054;-58
2023/06/10 03:56:06;;;;;;;3.58;3.28;;;;;;;23.90;43.07;100612.34;4485629;28;20035;-58
2023/06/10 03:58:17;;;;;;;3.58;3.28;;;;;;;23.90;42.96;100616.06;4458721;28;20050;-58
2023/06/10 04:00:28;;;;;;;3.50;3.20;;;;;;;23.93;43.01;100615.28;4472311;28;20649;-58
2023/06/10 04:02:45;;;;;;;3.85;2.92;;;;;;;23.93;42.67;100615.28;4486406;28;20433;-58
2023/06/10 04:05:01;;;;;;;3.15;2.88;;;;;;;23.89;43.28;100605.75;4478917;28;20074;-58
2023/06/10 04:07:12;;;;;;;3.33;3.03;;;;;;;23.88;43.30;100609.03;4486487;28;20601;-58
2023/06/10 04:09:22;;;;;;;3.05;2.85;;;;;;;23.89;43.41;100605.75;4486550;28;20070;-57
2023/06/10 04:11:33;;;;;;;3.55;3.25;;;;;;;23.90;43.70;100606.56;4486518;28;20018;-58
2023/06/10 04:13:43;;;;;;;3.60;3.30;;;;;;;23.86;42.90;100600.78;4486310;28;20042;-58
2023/06/10 04:15:56;;;;;;;3.42;3.13;;;;;;;23.91;43.80;100609.09;4485424;28;20142;-58
2023/06/10 04:18:07;;;;;;;3.30;3.00;;;;;;;23.89;43.87;100614.41;4454943;28;20090;-58
2023/06/10 04:20:18;;;;;;;3.10;2.80;;;;;;;23.89;44.09;100614.41;4462995;28;20037;-58
2023/06/10 04:22:32;;;;;;;3.30;3.00;;;;;;;23.89;44.36;100611.53;4471386;28;20705;-58
2023/06/10 04:24:42;;;;;;;2.95;2.75;;;;;;;23.91;44.46;100611.13;4487011;28;20034;-58
2023/06/10 04:26:53;;;;;;;3.53;2.70;;;;;;;23.91;44.29;100617.75;4485876;28;20026;-58
2023/06/10 04:29:04;;;;;;;2.80;2.60;;;;;;;23.89;43.99;100611.53;4474543;28;20394;-58
2023/06/10 04:31:15;;;;;;;3.25;2.95;;;;;;;23.90;43.86;100610.28;4470864;28;20314;-58
2023/06/10 04:33:26;;;;;;;2.88;2.67;;;;;;;23.90;43.94;100616.06;4472477;28;21152;-58
2023/06/10 04:35:36;;;;;;;3.13;2.83;;;;;;;23.88;44.05;100609.03;4471057;28;20145;-58
2023/06/10 04:37:49;;;;;;;3.00;2.70;;;;;;;23.91;44.20;100619.78;4471186;28;21191;-58
2023/06/10 04:40:00;;;;;;;2.97;2.70;;;;;;;23.91;44.11;100622.66;4487511;28;20050;-58
2023/06/10 04:42:12;;;;;;;2.72;2.50;;;;;;;23.74;44.17;100589.47;4486111;28;20042;-58
2023/06/10 04:44:24;;;;;;;2.80;2.60;;;;;;;23.87;44.14;100611.09;4477962;28;20082;-58
2023/06/10 04:46:35;;;;;;;3.00;2.70;;;;;;;23.92;44.24;100619.41;4471590;28;21117;-58
2023/06/10 04:48:46;;;;;;;2.95;2.65;;;;;;;23.92;44.38;100616.50;4486460;28;20042;-58
2023/06/10 04:50:58;;;;;;;2.92;2.70;;;;;;;23.93;44.51;100626.81;4484462;28;20069;-58
2023/06/10 04:53:09;;;;;;;3.00;2.80;;;;;;;23.89;44.48;100625.94;4468311;28;20144;-58
2023/06/10 04:55:21;;;;;;;2.88;2.67;;;;;;;23.90;44.76;100624.72;4478036;28;20133;-58
2023/06/10 04:57:32;;;;;;;2.50;2.30;;;;;;;23.92;45.04;100630.94;4486428;28;20046;-58
2023/06/10 04:59:42;;;;;;;3.20;2.50;;;;;;;23.87;44.51;100621.78;4485688;28;20116;-58
2023/06/10 05:01:53;;;;;;;2.70;2.50;;;;;;;23.90;44.75;100621.00;4486126;28;20030;-58
2023/06/10 05:04:04;;;;;;;2.47;2.28;;;;;;;23.91;44.41;100634.19;4486526;28;20433;-58
2023/06/10 05:06:14;;;;;;;2.45;2.25;;;;;;;23.91;44.77;100626.41;4486535;28;20753;-59
2023/06/10 05:08:25;;;;;;;2.65;2.20;;;;;;;23.85;44.80;100625.03;4486457;28;20040;-59
2023/06/10 05:10:35;;;;;;;3.35;2.50;;;;;;;23.91;44.67;100635.03;4484364;28;20070;-58
2023/06/10 05:12:46;;;;;;;2.75;2.13;;;;;;;23.90;44.72;100633.38;4477948;28;20046;-58
2023/06/10 05:14:56;;;;;;;2.15;1.95;;;;;;;23.86;44.60;100635.38;4486316;28;20030;-59
2023/06/10 05:17:07;;;;;;;2.97;2.10;;;;;;;23.89;44.55;100637.47;4487268;28;20033;-59
2023/06/10 05:19:18;;;;;;;2.40;2.20;;;;;;;23.67;44.22;100600.06;4460957;28;20045;-60
2023/06/10 05:21:28;;;;;;;2.25;1.90;;;;;;;23.87;44.06;100625.50;4473977;28;20069;-59
2023/06/10 05:23:39;;;;;;;1.90;1.80;;;;;;;23.90;44.20;100642.00;4486485;28;20038;-60
2023/06/10 05:25:49;;;;;;;2.10;1.85;;;;;;;23.88;43.81;100635.78;4470363;28;20026;-59
2023/06/10 05:28:00;;;;;;;1.85;1.75;;;;;;;23.90;43.47;100639.13;4486039;28;20118;-60
2023/06/10 05:30:11;;;;;;;2.03;1.83;;;;;;;23.90;43.77;100638.28;4485485;28;20065;-59
2023/06/10 05:32:21;;;;;;;2.05;1.80;;;;;;;23.88;43.87;100638.69;4484764;28;20036;-59
2023/06/10 05:34:32;;;;;;;1.63;1.50;;;;;;;23.81;43.61;100626.22;4487025;28;20051;-59
2023/06/10 05:36:42;;;;;;;1.85;1.67;;;;;;;23.85;43.65;100633.69;4485654;28;20046;-59
2023/06/10 05:38:53;;;;;;;1.70;1.45;;;;;;;23.88;43.44;100641.56;4485910;28;20030;-60
2023/06/10 05:41:03;;;;;;;2.13;1.90;;;;;;;23.87;43.20;100634.13;4485281;28;21062;-59
2023/06/10 05:43:16;;;;;;;2.05;1.52;;;;;;;23.88;43.58;100630.03;4485825;28;20539;-59
2023/06/10 05:45:27;;;;;;;2.20;1.48;;;;;;;23.89;43.35;100636.63;4485973;28;20038;-59
2023/06/10 05:47:37;;;;;;;1.80;1.67;;;;;;;23.91;43.29;100632.16;4484123;28;20507;-59
2023/06/10 05:49:49;;;;;;;1.80;1.60;;;;;;;23.91;43.01;100632.16;4467379;28;20507;-59
2023/06/10 05:52:00;;;;;;;1.92;1.52;;;;;;;23.73;43.19;100605.09;4476207;28;20045;-60
2023/06/10 05:54:10;;;;;;;1.45;1.35;;;;;;;23.87;42.96;100627.53;4485188;28;20518;-59
2023/06/10 05:56:23;;;;;;;1.58;1.48;;;;;;;23.83;43.54;100609.38;4486681;28;20031;-60
2023/06/10 05:58:34;;;;;;;2.17;1.60;;;;;;;23.92;43.04;100624.31;4485590;28;20876;-59
2023/06/10 06:00:44;;;;;;;1.50;1.40;;;;;;;23.88;42.76;100624.25;4486719;28;20371;-59
2023/06/10 06:02:57;;;;;;;1.90;1.60;;;;;;;23.91;43.47;100631.31;4485054;28;20031;-62
2023/06/10 06:05:07;;;;;;;1.42;1.30;;;;;;;23.93;43.36;100631.78;4486780;28;20052;-60
2023/06/10 06:07:20;;;;;;;2.13;1.67;;;;;;;23.93;43.72;100631.78;4485911;28;20513;-60
2023/06/10 06:09:30;;;;;;;1.50;1.40;;;;;;;23.91;42.84;100632.16;4478030;28;20061;-61
2023/06/10 06:11:41;;;;;;;1.50;1.40;;;;;;;23.90;42.78;100621.00;4469825;28;20125;-60
2023/06/10 06:13:51;;;;;;;2.20;1.60;;;;;;;23.89;43.11;100625.94;4469678;28;20038;-60
2023/06/10 06:16:02;;;;;;;1.60;1.50;;;;;;;23.87;43.90;100616.84;4471282;28;20451;-59
2023/06/10 06:18:13;;;;;;;1.83;1.50;;;;;;;23.91;43.43;100623.50;4485371;28;20045;-60
2023/06/10 06:20:23;;;;;;;1.73;1.60;;;;;;;23.92;43.48;100625.16;4485465;28;20335;-59
2023/06/10 06:22:33;;;;;;;1.90;1.65;;;;;;;23.86;44.22;100609.44;4486098;28;20470;-58
2023/06/10 06:24:44;;;;;;;1.50;1.40;;;;;;;23.92;44.30;100619.41;4455241;28;20094;-58
2023/06/10 06:26:54;;;;;;;1.63;1.35;;;;;;;23.93;42.84;100628.88;4483956;28;20057;-58
2023/06/10 06:29:05;;;;;;;1.52;1.23;;;;;;;23.91;43.12;100620.63;4471429;28;20903;-58
2023/06/10 06:31:15;;;;;;;1.50;1.40;;;;;;;23.92;43.80;100625.16;4485450;28;20132;-58
2023/06/10 06:33:26;;;;;;;1.40;1.30;;;;;;;23.91;43.29;100620.63;4484276;28;20740;-59
2023/06/10 06:35:38;;;;;;;1.70;1.60;;;;;;;23.91;43.31;100620.63;4484884;28;20052;-59
2023/06/10 06:37:48;;;;;;;1.63;1.52;;;;;;;23.92;43.64;100625.16;4470630;28;20541;-59
2023/06/10 06:40:05;;;;;;;1.50;1.40;;;;;;;23.89;44.26;100620.19;4478449;28;20137;-58
2023/06/10 06:42:15;;;;;;;1.65;1.50;;;;;;;23.81;43.78;100621.28;4485279;28;20077;-58
2023/06/10 06:44:41;;;;;;;2.13;1.60;;;;;;;23.80;44.14;100628.25;4461566;28;21677;-59
2023/06/10 06:46:51;;;;;;;1.50;1.40;;;;;;;23.78;44.58;100621.22;4484548;28;20046;-58
2023/06/10 06:49:01;;;;;;;2.42;1.60;;;;;;;23.78;44.32;100630.72;4486184;28;20045;-58
2023/06/10 06:51:12;;;;;;;2.08;1.70;;;;;;;23.76;44.59;100627.38;4484125;28;20041;-59
2023/06/10 06:53:22;;;;;;;1.48;1.20;;;;;;;23.78;43.95;100642.25;4486369;28;20046;-58
2023/06/10 06:55:33;;;;;;;1.40;1.30;;;;;;;23.69;44.32;100627.25;4486062;28;20030;-59
2023/06/10 06:57:43;;;;;;;1.92;1.65;;;;;;;23.68;44.47;100628.50;4478239;28;20777;-58
2023/06/10 06:59:54;;;;;;;2.38;1.50;;;;;;;23.71;44.17;100636.34;4489179;28;20049;-60
2023/06/10 07:02:05;;;;;;;1.50;1.25;;;;;;;23.71;43.77;100630.59;4475963;28;20045;-59
2023/06/10 07:04:16;;;;;;;3.08;1.80;;;;;;;23.73;44.30;100639.69;4489789;28;20605;-60
2023/06/10 07:06:26;;;;;;;1.48;1.38;;;;;;;23.57;44.32;100616.81;4490195;28;20313;-60
2023/06/10 07:08:36;;;;;;;1.67;1.58;;;;;;;23.70;43.86;100633.88;4490085;28;20680;-60
2023/06/10 07:10:48;;;;;;;1.65;1.40;;;;;;;23.71;44.27;100633.47;4488845;28;20042;-60
2023/06/10 07:12:59;;;;;;;1.45;1.35;;;;;;;23.70;45.34;100640.47;4489594;28;20593;-60
2023/06/10 07:15:09;;;;;;;1.90;1.70;;;;;;;23.45;45.21;100598.91;4488626;28;20069;-60
2023/06/10 07:17:20;;;;;;;2.72;1.70;;;;;;;23.66;45.51;100644.53;4490170;28;21433;-60
2023/06/10 07:19:30;;;;;;;1.77;1.58;;;;;;;23.68;45.46;100648.66;4489718;28;20336;-59
2023/06/10 07:21:41;;;;;;;1.95;1.63;;;;;;;23.67;45.74;100649.06;4490206;28;20046;-60
2023/06/10 07:23:53;;;;;;;1.50;1.40;;;;;;;23.67;45.93;100662.22;4494731;28;21139;-60
2023/06/10 07:26:04;;;;;;;2.40;1.60;;;;;;;23.65;45.74;100655.22;4496120;28;20035;-60
2023/06/10 07:28:14;;;;;;;1.40;1.30;;;;;;;23.65;46.91;100655.22;4494866;28;20475;-60
2023/06/10 07:30:24;;;;;;;1.60;1.50;;;;;;;23.67;45.30;100656.47;4496107;28;20092;-60
2023/06/10 07:32:35;;;;;;;1.40;1.30;;;;;;;23.60;45.42;100647.72;4486976;28;20030;-60
2023/06/10 07:34:46;;;;;;;1.30;1.20;;;;;;;23.65;44.98;100655.22;4478739;28;20039;-59
2023/06/10 07:36:56;;;;;;;1.33;1.23;;;;;;;23.64;44.34;100653.56;4496148;28;20164;-60
2023/06/10 07:39:07;;;;;;;1.45;1.30;;;;;;;23.63;44.08;100655.59;4495087;28;20518;-60
2023/06/10 07:41:18;;;;;;;1.52;1.27;;;;;;;23.61;43.41;100652.25;4495267;28;20033;-60
2023/06/10 07:43:29;;;;;;;1.70;1.42;;;;;;;23.59;43.76;100651.00;4495495;28;20031;-60
2023/06/10 07:45:41;;;;;;;1.85;1.40;;;;;;;23.61;43.89;100643.59;4494331;28;20039;-60
2023/06/10 07:47:51;;;;;;;1.40;1.30;;;;;;;23.60;43.79;100647.72;4494991;28;20137;-60
2023/06/10 07:50:02;;;;;;;1.70;1.33;;;;;;;23.64;43.79;100653.56;4478270;28;20117;-60
2023/06/10 07:52:12;;;;;;;1.75;1.50;;;;;;;23.61;44.30;100648.53;4494851;28;20026;-60
2023/06/10 07:54:23;;;;;;;1.33;1.00;;;;;;;23.64;50.57;100653.56;4495087;28;20121;-60
2023/06/10 07:56:33;;;;;;;1.30;1.20;;;;;;;23.64;50.21;100642.84;4480499;28;20042;-61
2023/06/10 07:58:43;;;;;;;1.20;1.10;;;;;;;23.61;50.23;100640.72;4495291;28;20575;-60
2023/06/10 08:00:54;;;;;;;1.70;1.20;;;;;;;23.62;49.66;100641.56;4495035;28;20046;-60
2023/06/10 08:03:04;;;;;;;3.10;1.23;;;;;;;23.53;50.94;100636.06;4495385;28;20031;-61
2023/06/10 08:05:15;;;;;;;1.45;1.10;;;;;;;23.56;50.91;100640.25;4495446;28;20050;-61
2023/06/10 08:07:25;;;;;;;2.05;1.38;;;;;;;23.57;51.20;100644.78;4494436;28;20089;-60
2023/06/10 08:09:35;;;;;;;1.63;1.30;;;;;;;23.58;50.74;100649.31;4495246;28;20560;-61
2023/06/10 08:11:47;;;;;;;3.30;2.03;;;;;;;23.60;51.82;100647.72;4495382;28;20409;-61
2023/06/10 08:13:57;;;;;;;1.73;1.35;;;;;;;23.54;52.09;100637.75;4479655;28;20042;-61
2023/06/10 08:16:08;;;;;;;1.67;1.30;;;;;;;23.61;52.14;100642.78;4493937;28;20030;-61
2023/06/10 08:18:18;;;;;;;2.58;1.25;;;;;;;23.56;51.07;100637.38;4494568;28;20046;-61
2023/06/10 08:20:29;;;;;;;1.60;1.17;;;;;;;23.56;51.40;100641.06;4494801;28;20045;-62
2023/06/10 08:22:39;;;;;;;1.52;1.35;;;;;;;23.60;51.83;100647.72;4484970;28;20595;-61
2023/06/10 08:24:50;;;;;;;2.20;1.25;;;;;;;23.58;51.86;100640.66;4495202;28;20505;-60
2023/06/10 08:27:00;;;;;;;2.15;1.40;;;;;;;23.70;51.83;100646.22;4495983;28;20038;-63
2023/06/10 08:29:12;;;;;;;1.83;1.20;;;;;;;23.77;51.38;100652.09;4495177;28;20073;-64
2023/06/10 08:31:23;;;;;;;3.28;1.50;;;;;;;23.78;51.88;100647.16;4477152;28;20047;-61
2023/06/10 08:33:33;;;;;;;1.40;1.02;;;;;;;23.76;51.31;100649.59;4477437;28;20054;-65
2023/06/10 08:35:43;;;;;;;2.10;1.25;;;;;;;23.68;51.24;100642.91;4492648;28;20136;-65
2023/06/10 08:37:54;;;;;;;4.45;1.40;;;;;;;23.59;49.51;100651.81;4492429;28;20034;-62
2023/06/10 08:40:05;;;;;;;3.03;1.60;;;;;;;23.54;51.68;100645.56;4482740;28;20807;-62
2023/06/10 08:42:33;;;;;;;8.88;3.10;;;;;;;23.55;53.29;100645.16;4484250;28;20045;-62
2023/06/10 08:44:46;;;;;;;14.23;3.65;;;;;;;23.54;54.07;100637.75;4491561;28;20045;-63
2023/06/10 08:47:00;;;;;;;10.02;3.55;;;;;;;23.57;53.34;100647.66;4490432;28;20030;-62
2023/06/10 08:49:18;;;;;;;11.10;3.72;;;;;;;23.52;52.35;100645.94;4492049;28;20038;-62
2023/06/10 08:51:30;;;;;;;6.65;2.50;;;;;;;23.57;51.20;100647.66;4482849;28;20022;-62
2023/06/10 08:53:50;;;;;;;7.22;2.28;;;;;;;23.53;49.75;100641.81;4490611;28;20120;-63
2023/06/10 08:56:04;;;;;;;11.07;3.45;;;;;;;23.48;51.53;100644.22;4491498;28;20062;-62
2023/06/10 08:58:14;;;;;;;4.55;1.42;;;;;;;23.47;46.89;100649.13;4492772;28;20038;-61
2023/06/10 09:00:26;;;;;;;8.90;3.20;;;;;;;23.46;51.18;100656.13;4491215;28;20039;-61
2023/06/10 09:02:36;;;;;;;4.03;1.80;;;;;;;23.44;47.21;100646.19;4491637;28;20100;-61
2023/06/10 09:04:49;;;;;;;9.85;3.20;;;;;;;23.48;53.59;100653.69;4491780;28;20104;-62
2023/06/10 09:07:07;;;;;;;6.63;2.95;;;;;;;23.47;54.09;100642.53;4490074;28;21206;-62
2023/06/10 09:09:22;;;;;;;6.25;2.78;;;;;;;23.45;51.06;100650.75;4492665;28;20171;-64
2023/06/10 09:11:33;;;;;;;6.45;2.03;;;;;;;23.41;50.74;100633.41;4490725;28;20045;-61
2023/06/10 09:13:43;;;;;;;3.92;1.40;;;;;;;23.37;48.66;100640.31;4492181;28;20026;-62
2023/06/10 09:15:56;;;;;;;3.35;1.67;;;;;;;23.41;51.57;100644.09;4472719;28;20035;-62
2023/06/10 09:18:06;;;;;;;5.65;2.50;;;;;;;23.39;53.27;100635.84;4490494;28;20029;-62
2023/06/10 09:20:17;;;;;;;8.68;2.42;;;;;;;23.34;54.06;100624.63;4491105;28;20046;-61
2023/06/10 09:22:28;;;;;;;5.82;2.60;;;;;;;23.39;53.44;100640.75;4490713;28;20510;-62
2023/06/10 09:24:39;;;;;;;5.85;2.33;;;;;;;23.38;53.79;100627.56;4491337;28;20042;-61
2023/06/10 09:26:50;;;;;;;3.25;1.63;;;;;;;23.39;51.79;100623.47;4458111;28;20043;-62
2023/06/10 09:29:05;;;;;;;3.28;1.70;;;;;;;23.38;51.32;100633.34;4491769;28;20046;-61
2023/06/10 09:31:18;;;;;;;6.55;2.28;;;;;;;23.33;51.96;100625.03;4491524;28;20181;-61
2023/06/10 09:33:28;;;;;;;4.13;1.98;;;;;;;23.29;52.13;100619.19;4489492;28;20525;-62
2023/06/10 09:35:48;;;;;;;4.95;2.08;;;;;;;23.22;52.27;100606.69;4491147;28;20139;-61
2023/06/10 09:37:59;;;;;;;1.92;1.40;;;;;;;23.40;51.90;100637.47;4492533;28;20046;-62
2023/06/10 09:40:11;;;;;;;1.35;1.20;;;;;;;23.41;51.65;100626.81;4491783;28;20614;-62
2023/06/10 09:42:22;;;;;;;1.92;1.38;;;;;;;23.37;51.60;100628.81;4475060;28;20047;-62
2023/06/10 09:44:32;;;;;;;1.88;1.10;;;;;;;23.32;51.58;100623.38;4490675;28;20034;-61
2023/06/10 09:46:46;;;;;;;2.42;1.33;;;;;;;23.39;51.89;100630.06;4490180;28;20061;-61
2023/06/10 09:48:57;;;;;;;2.35;1.50;;;;;;;23.39;52.32;100623.47;4472962;28;20034;-62
2023/06/10 09:51:12;;;;;;;1.88;1.40;;;;;;;23.37;52.25;100620.16;4490381;28;20035;-62
2023/06/10 09:53:23;;;;;;;3.25;1.70;;;;;;;23.35;52.16;100611.06;4492129;28;20073;-61
2023/06/10 09:55:34;;;;;;;3.42;1.58;;;;;;;23.33;52.57;100616.38;4489997;28;20073;-62
2023/06/10 09:57:49;;;;;;;3.70;1.65;;;;;;;23.35;52.60;100625.47;4490367;28;20161;-61
2023/06/10 10:00:04;;;;;;;2.15;1.50;;;;;;;23.34;52.78;100626.69;4490860;28;20513;-62
2023/06/10 10:02:22;;;;;;;2.67;1.55;;;;;;;23.33;52.89;100622.13;4488113;28;20041;-62
2023/06/10 10:04:34;;;;;;;2.60;1.60;;;;;;;23.36;52.82;100630.00;4490635;28;20039;-61
2023/06/10 10:06:45;;;;;;;2.50;1.50;;;;;;;23.35;52.66;100619.72;4489923;28;20038;-62
2023/06/10 10:08:55;;;;;;;1.60;1.30;;;;;;;23.34;52.93;100626.69;4474724;28;20039;-62
2023/06/10 10:11:05;;;;;;;2.28;1.50;;;;;;;23.28;52.88;100611.78;4490664;28;20545;-62
2023/06/10 10:13:17;;;;;;;2.53;1.40;;;;;;;23.34;53.09;100620.94;4490338;28;20344;-62